createdAt,value
2022-11-29T00:01:25.932Z,24.63
2022-11-29T00:03:53.144Z,15.13
2022-11-29T00:06:21.723Z,17.33
2022-11-29T00:08:48.928Z,16.30
2022-11-29T00:11:38.142Z,16.63
2022-11-29T00:14:06.082Z,17.00
2022-11-29T00:16:32.669Z,14.23
2022-11-29T00:18:59.394Z,14.07
2022-11-29T00:21:25.746Z,16.87
2022-11-29T00:23:52.136Z,17.87
2022-11-29T00:26:19.036Z,14.57
2022-11-29T00:28:45.339Z,17.00
2022-11-29T00:31:24.627Z,17.40
2022-11-29T00:33:51.758Z,16.03
2022-11-29T00:36:18.991Z,18.17
2022-11-29T00:38:45.791Z,14.50
2022-11-29T00:41:12.289Z,15.73
2022-11-29T00:43:38.900Z,16.47
2022-11-29T00:46:06.231Z,18.77
2022-11-29T00:48:33.041Z,15.57
2022-11-29T00:50:59.537Z,16.57
2022-11-29T00:53:26.078Z,15.97
2022-11-29T00:55:53.107Z,18.33
2022-11-29T00:58:21.153Z,14.87
2022-11-29T01:00:48.357Z,15.50
2022-11-29T01:03:15.893Z,18.07
2022-11-29T01:05:42.913Z,15.67
2022-11-29T01:08:10.273Z,17.23
2022-11-29T01:10:36.674Z,15.50
2022-11-29T01:13:03.114Z,18.87
2022-11-29T01:15:30.560Z,20.97
2022-11-29T01:17:57.028Z,18.17
2022-11-29T01:20:23.549Z,15.40
2022-11-29T01:22:50.091Z,16.83
2022-11-29T01:25:16.801Z,19.57
2022-11-29T01:27:43.230Z,21.90
2022-11-29T01:30:10.918Z,17.83
2022-11-29T01:32:37.575Z,19.87
2022-11-29T01:35:05.508Z,15.90
2022-11-29T01:37:32.302Z,15.10
2022-11-29T01:39:58.709Z,17.50
2022-11-29T01:42:25.189Z,15.23
2022-11-29T01:45:13.481Z,18.60
2022-11-29T01:47:44.748Z,16.73
2022-11-29T01:50:11.455Z,16.37
2022-11-29T01:52:38.197Z,15.50
2022-11-29T01:55:07.642Z,18.90
2022-11-29T01:57:36.624Z,16.10
2022-11-29T02:00:08.776Z,16.53
2022-11-29T02:02:57.271Z,16.70
2022-11-29T02:05:25.269Z,20.33
2022-11-29T02:07:55.772Z,16.80
2022-11-29T02:10:32.689Z,16.20
2022-11-29T02:13:21.502Z,20.73
2022-11-29T02:16:10.676Z,16.23
2022-11-29T02:18:44.825Z,16.47
2022-11-29T02:21:19.831Z,17.87
2022-11-29T02:24:16.851Z,18.03
2022-11-29T02:26:55.260Z,18.57
2022-11-29T02:29:29.605Z,17.93
2022-11-29T02:32:42.002Z,16.03
2022-11-29T02:35:24.738Z,17.13
2022-11-29T02:38:22.056Z,18.17
2022-11-29T02:40:57.429Z,20.83
2022-11-29T02:43:39.775Z,22.20
2022-11-29T02:46:33.920Z,22.00
2022-11-29T02:49:33.371Z,18.10
2022-11-29T02:52:16.978Z,23.47
2022-11-29T02:54:56.730Z,20.13
2022-11-29T02:57:33.109Z,19.93
2022-11-29T03:00:05.714Z,19.33
2022-11-29T03:02:35.046Z,18.13
2022-11-29T03:05:07.155Z,20.27
2022-11-29T03:07:55.697Z,17.03
2022-11-29T03:10:50.314Z,18.37
2022-11-29T03:13:24.907Z,21.53
2022-11-29T03:16:06.103Z,17.47
2022-11-29T03:18:35.457Z,23.40
2022-11-29T03:21:32.670Z,16.83
2022-11-29T03:24:04.765Z,20.73
2022-11-29T03:26:37.238Z,18.40
2022-11-29T03:29:11.854Z,15.80
2022-11-29T03:31:56.779Z,19.83
2022-11-29T03:34:44.821Z,18.23
2022-11-29T03:37:23.170Z,19.00
2022-11-29T03:40:03.286Z,18.63
2022-11-29T03:42:51.084Z,23.93
2022-11-29T03:45:25.031Z,18.63
2022-11-29T03:47:57.859Z,19.43
2022-11-29T03:50:32.417Z,20.67
2022-11-29T03:53:19.659Z,17.93
2022-11-29T03:56:00.463Z,17.87
2022-11-29T03:58:49.264Z,20.87
2022-11-29T04:01:28.398Z,18.20
2022-11-29T04:04:19.953Z,18.33
2022-11-29T04:07:04.451Z,20.47
2022-11-29T04:10:16.113Z,20.33
2022-11-29T04:13:29.950Z,22.03
2022-11-29T04:16:26.793Z,23.80
2022-11-29T04:19:31.069Z,22.87
2022-11-29T04:22:18.835Z,27.50
2022-11-29T04:24:59.697Z,27.43
2022-11-29T04:27:38.269Z,31.97
2022-11-29T04:30:19.600Z,29.33
2022-11-29T04:33:13.710Z,42.20
2022-11-29T04:36:19.823Z,43.57
2022-11-29T04:38:49.234Z,47.17
2022-11-29T04:41:51.351Z,64.80
2022-11-29T04:44:50.713Z,56.93
2022-11-29T04:47:38.946Z,62.10
2022-11-29T04:50:15.472Z,66.33
2022-11-29T04:53:00.109Z,56.53
2022-11-29T04:55:45.683Z,71.47
2022-11-29T04:58:35.086Z,59.77
2022-11-29T05:01:15.133Z,63.57
2022-11-29T05:03:56.689Z,58.83
2022-11-29T05:06:48.771Z,70.97
2022-11-29T05:09:27.330Z,61.73
2022-11-29T05:12:05.832Z,62.40
2022-11-29T05:14:45.467Z,74.27
2022-11-29T05:17:31.075Z,68.33
2022-11-29T05:20:04.003Z,68.60
2022-11-29T05:23:05.926Z,76.83
2022-11-29T05:25:46.627Z,71.40
2022-11-29T05:28:24.716Z,72.60
2022-11-29T05:31:29.410Z,77.40
2022-11-29T05:34:34.561Z,73.60
2022-11-29T05:37:06.201Z,71.77
2022-11-29T05:40:07.607Z,80.87
2022-11-29T05:43:01.915Z,82.77
2022-11-29T05:45:48.523Z,79.90
2022-11-29T05:48:45.040Z,76.20
2022-11-29T05:51:29.760Z,76.00
2022-11-29T05:54:18.206Z,105.93
2022-11-29T05:56:48.464Z,95.07
2022-11-29T05:59:27.135Z,87.13
2022-11-29T06:02:22.787Z,91.87
2022-11-29T06:05:03.954Z,102.27
2022-11-29T06:07:54.891Z,102.30
2022-11-29T06:10:26.148Z,98.43
2022-11-29T06:13:18.198Z,103.30
2022-11-29T06:16:02.780Z,93.30
2022-11-29T06:18:41.322Z,89.87
2022-11-29T06:21:40.714Z,83.10
2022-11-29T06:24:25.982Z,98.63
2022-11-29T06:27:15.863Z,106.10
2022-11-29T06:29:55.525Z,97.13
2022-11-29T06:32:42.046Z,92.83
2022-11-29T06:35:46.777Z,104.53
2022-11-29T06:38:20.246Z,117.70
2022-11-29T06:40:47.055Z,106.90
2022-11-29T06:43:13.778Z,95.33
2022-11-29T06:45:49.054Z,99.57
2022-11-29T06:48:27.555Z,103.53
2022-11-29T06:51:03.223Z,96.23
2022-11-29T06:53:39.900Z,122.33
2022-11-29T06:56:29.554Z,116.33
2022-11-29T06:59:29.878Z,111.03
2022-11-29T07:02:27.405Z,135.43
2022-11-29T07:05:23.541Z,136.70
2022-11-29T07:07:54.299Z,159.50
2022-11-29T07:10:21.512Z,152.60
2022-11-29T07:12:50.449Z,151.50
2022-11-29T07:15:19.409Z,151.03
2022-11-29T07:18:02.807Z,146.13
2022-11-29T07:20:47.302Z,161.00
2022-11-29T07:23:34.236Z,160.83
2022-11-29T07:26:23.419Z,166.33
2022-11-29T07:29:24.605Z,152.63
2022-11-29T07:31:54.103Z,162.23
2022-11-29T07:34:42.972Z,163.47
2022-11-29T07:37:33.837Z,139.00
2022-11-29T07:40:34.417Z,150.43
2022-11-29T07:43:37.509Z,142.47
2022-11-29T07:46:03.957Z,150.73
2022-11-29T07:48:30.330Z,156.40
2022-11-29T07:50:57.197Z,150.13
2022-11-29T07:53:24.394Z,150.97
2022-11-29T07:55:51.162Z,140.40
2022-11-29T07:58:18.664Z,137.70
2022-11-29T08:00:45.576Z,136.17
2022-11-29T08:03:12.430Z,143.43
2022-11-29T08:05:39.725Z,149.20
2022-11-29T08:08:06.903Z,142.27
2022-11-29T08:10:34.088Z,132.97
2022-11-29T08:13:00.592Z,129.17
2022-11-29T08:15:27.343Z,122.33
2022-11-29T08:17:53.857Z,122.17
2022-11-29T08:20:20.369Z,130.90
2022-11-29T08:22:54.398Z,118.47
2022-11-29T08:25:20.834Z,119.63
2022-11-29T08:27:47.139Z,116.57
2022-11-29T08:30:13.674Z,136.73
2022-11-29T08:32:40.123Z,118.77
2022-11-29T08:35:06.674Z,134.53
2022-11-29T08:37:33.040Z,134.70
2022-11-29T08:39:59.439Z,124.00
2022-11-29T08:42:25.930Z,122.53
2022-11-29T08:44:52.342Z,121.63
2022-11-29T08:47:37.064Z,115.40
2022-11-29T08:50:12.164Z,115.83
2022-11-29T08:53:02.124Z,114.63
2022-11-29T08:55:32.951Z,108.83
2022-11-29T08:58:10.140Z,124.20
2022-11-29T09:00:37.300Z,106.40
2022-11-29T09:03:23.793Z,113.87
2022-11-29T09:05:50.250Z,98.90
2022-11-29T09:08:16.782Z,109.23
2022-11-29T09:10:43.426Z,102.20
2022-11-29T09:13:11.097Z,106.50
2022-11-29T09:15:38.694Z,103.23
2022-11-29T09:18:06.860Z,90.23
2022-11-29T09:20:34.254Z,99.43
2022-11-29T09:23:01.312Z,90.93
2022-11-29T09:25:28.058Z,100.07
2022-11-29T09:27:57.391Z,91.43
2022-11-29T09:30:24.050Z,90.87
2022-11-29T09:32:50.548Z,87.77
2022-11-29T09:35:17.079Z,92.47
2022-11-29T09:37:43.683Z,77.43
2022-11-29T09:40:23.539Z,83.50
2022-11-29T09:43:02.819Z,74.03
2022-11-29T09:45:38.878Z,83.97
2022-11-29T09:48:08.330Z,72.10
2022-11-29T09:50:47.863Z,71.63
2022-11-29T09:53:50.293Z,77.07
2022-11-29T09:56:31.130Z,60.77
2022-11-29T09:59:01.201Z,70.10
2022-11-29T10:01:39.714Z,63.77
2022-11-29T10:04:14.437Z,64.70
2022-11-29T10:06:54.568Z,65.37
2022-11-29T10:09:38.218Z,59.13
2022-11-29T10:12:30.697Z,61.83
2022-11-29T10:15:17.748Z,64.67
2022-11-29T10:18:02.270Z,59.43
2022-11-29T10:20:41.413Z,64.33
2022-11-29T10:23:23.007Z,61.83
2022-11-29T10:25:55.172Z,65.43
2022-11-29T10:28:30.653Z,56.97
2022-11-29T10:31:08.456Z,58.60
2022-11-29T10:33:40.167Z,68.60
2022-11-29T10:36:25.610Z,64.43
2022-11-29T10:38:59.395Z,67.73
2022-11-29T10:41:26.857Z,66.17
2022-11-29T10:43:56.266Z,69.13
2022-11-29T10:46:30.101Z,75.53
2022-11-29T10:48:59.340Z,76.03
2022-11-29T10:51:25.913Z,75.60
2022-11-29T10:53:54.925Z,73.07
2022-11-29T10:56:29.494Z,76.80
2022-11-29T10:59:05.252Z,79.80
2022-11-29T11:01:36.045Z,75.30
2022-11-29T11:04:04.289Z,75.07
2022-11-29T11:06:46.754Z,79.07
2022-11-29T11:09:36.251Z,78.77
2022-11-29T11:12:20.032Z,85.23
2022-11-29T11:14:47.264Z,80.47
2022-11-29T11:17:36.441Z,84.07
2022-11-29T11:20:06.251Z,76.70
2022-11-29T11:22:34.030Z,75.43
2022-11-29T11:25:08.103Z,73.93
2022-11-29T11:27:41.595Z,69.73
2022-11-29T11:30:23.565Z,79.37
2022-11-29T11:33:17.256Z,62.70
2022-11-29T11:35:43.721Z,68.70
2022-11-29T11:38:17.622Z,73.87
2022-11-29T11:40:45.200Z,70.23
2022-11-29T11:43:29.840Z,75.43
2022-11-29T11:45:56.486Z,68.83
2022-11-29T11:48:23.738Z,62.27
2022-11-29T11:50:53.785Z,63.73
2022-11-29T11:53:36.585Z,58.07
2022-11-29T11:56:09.031Z,62.10
2022-11-29T11:58:44.318Z,60.33
2022-11-29T12:01:10.655Z,60.83
2022-11-29T12:03:52.709Z,53.77
2022-11-29T12:06:34.327Z,55.87
2022-11-29T12:09:36.390Z,53.90
2022-11-29T12:12:29.795Z,62.03
2022-11-29T12:15:07.032Z,61.50
2022-11-29T12:18:00.378Z,54.20
2022-11-29T12:20:28.285Z,60.67
2022-11-29T12:23:13.040Z,53.60
2022-11-29T12:26:05.833Z,53.70
2022-11-29T12:28:35.003Z,54.77
2022-11-29T12:31:23.970Z,51.07
2022-11-29T12:34:02.919Z,52.53
2022-11-29T12:36:50.005Z,50.23
2022-11-29T12:39:31.769Z,55.47
2022-11-29T12:42:14.740Z,49.53
2022-11-29T12:45:02.396Z,53.10
2022-11-29T12:47:58.884Z,56.03
2022-11-29T12:50:43.220Z,53.23
2022-11-29T12:53:43.858Z,51.07
2022-11-29T12:56:19.312Z,55.40
2022-11-29T12:59:04.532Z,51.83
2022-11-29T13:01:55.223Z,56.33
2022-11-29T13:04:40.918Z,56.50
2022-11-29T13:07:51.260Z,56.50
2022-11-29T13:10:36.375Z,57.13
2022-11-29T13:13:41.338Z,51.67
2022-11-29T13:16:48.681Z,57.70
2022-11-29T13:19:24.810Z,57.33
2022-11-29T13:22:09.979Z,67.77
2022-11-29T13:24:43.179Z,61.90
2022-11-29T13:27:26.463Z,58.03
2022-11-29T13:29:53.755Z,59.60
2022-11-29T13:32:35.754Z,66.17
2022-11-29T13:35:21.416Z,63.30
2022-11-29T13:37:55.521Z,56.47
2022-11-29T13:40:55.849Z,59.03
2022-11-29T13:43:38.911Z,62.83
2022-11-29T13:46:37.261Z,61.07
2022-11-29T13:49:03.846Z,54.53
2022-11-29T13:51:37.061Z,55.73
2022-11-29T13:54:06.387Z,56.07
2022-11-29T13:56:48.407Z,51.83
2022-11-29T13:59:49.286Z,59.23
2022-11-29T14:02:28.401Z,55.07
2022-11-29T14:04:54.979Z,50.10
2022-11-29T14:07:21.518Z,62.80
2022-11-29T14:09:49.845Z,52.77
2022-11-29T14:12:31.232Z,61.60
2022-11-29T14:15:01.605Z,55.83
2022-11-29T14:17:41.626Z,53.20
2022-11-29T14:20:23.309Z,54.27
2022-11-29T14:23:05.096Z,56.13
2022-11-29T14:28:22.463Z,52.87
2022-11-29T14:31:01.364Z,56.03
2022-11-29T14:33:46.405Z,53.33
2022-11-29T14:36:18.650Z,50.73
2022-11-29T14:38:54.620Z,59.90
2022-11-29T14:41:49.172Z,62.87
2022-11-29T14:44:32.979Z,52.93
2022-11-29T14:47:01.043Z,58.77
2022-11-29T14:49:29.003Z,56.23
2022-11-29T14:52:16.272Z,46.33
2022-11-29T14:54:55.431Z,54.70
2022-11-29T14:57:47.143Z,53.83
2022-11-29T15:00:16.496Z,58.87
2022-11-29T15:03:15.196Z,52.03
2022-11-29T15:05:48.710Z,51.40
2022-11-29T15:08:37.183Z,52.77
2022-11-29T15:11:40.449Z,55.00
2022-11-29T15:14:15.630Z,61.93
2022-11-29T15:17:00.465Z,51.67
2022-11-29T15:20:07.072Z,67.73
2022-11-29T15:22:43.430Z,55.43
2022-11-29T15:25:17.181Z,58.87
2022-11-29T15:27:58.386Z,54.10
2022-11-29T15:30:27.952Z,65.03
2022-11-29T15:32:54.415Z,66.93
2022-11-29T15:35:20.944Z,59.80
2022-11-29T15:37:49.695Z,64.60
2022-11-29T15:40:18.275Z,65.87
2022-11-29T15:42:55.431Z,66.87
2022-11-29T15:45:34.203Z,58.13
2022-11-29T15:48:15.791Z,62.27
2022-11-29T15:50:49.090Z,69.27
2022-11-29T15:53:25.788Z,67.63
2022-11-29T15:55:55.455Z,67.00
2022-11-29T15:58:22.797Z,62.97
2022-11-29T16:00:51.688Z,72.33
2022-11-29T16:03:29.811Z,69.17
2022-11-29T16:06:19.661Z,71.13
2022-11-29T16:08:46.748Z,65.43
2022-11-29T16:11:17.277Z,74.00
2022-11-29T16:14:13.298Z,63.47
2022-11-29T16:16:41.884Z,60.17
2022-11-29T16:19:28.250Z,66.60
2022-11-29T16:22:12.815Z,67.37
2022-11-29T16:24:56.058Z,62.37
2022-11-29T16:27:23.377Z,57.93
2022-11-29T16:29:51.478Z,57.23
2022-11-29T16:32:23.777Z,57.93
2022-11-29T16:34:50.360Z,56.50
2022-11-29T16:37:21.585Z,54.20
2022-11-29T16:39:50.748Z,51.37
2022-11-29T16:42:25.773Z,52.93
2022-11-29T16:45:01.730Z,56.70
2022-11-29T16:47:46.297Z,55.47
2022-11-29T16:50:19.384Z,57.03
2022-11-29T16:52:46.166Z,59.50
2022-11-29T16:55:12.762Z,56.93
2022-11-29T16:57:39.930Z,54.17
2022-11-29T17:00:45.076Z,58.27
2022-11-29T17:03:11.487Z,53.93
2022-11-29T17:05:43.157Z,58.00
2022-11-29T17:08:11.186Z,54.93
2022-11-29T17:10:37.619Z,56.50
2022-11-29T17:13:06.763Z,55.73
2022-11-29T17:15:33.184Z,58.63
2022-11-29T17:17:59.627Z,64.20
2022-11-29T17:20:26.047Z,59.90
2022-11-29T17:22:52.521Z,57.70
2022-11-29T17:25:18.814Z,66.33
2022-11-29T17:27:45.198Z,61.57
2022-11-29T17:30:12.253Z,55.23
2022-11-29T17:32:38.606Z,57.27
2022-11-29T17:35:05.253Z,54.60
2022-11-29T17:37:32.080Z,56.57
2022-11-29T17:39:58.454Z,55.77
2022-11-29T17:42:24.863Z,65.03
2022-11-29T17:44:51.294Z,60.03
2022-11-29T17:47:17.638Z,57.27
2022-11-29T17:49:44.428Z,56.23
2022-11-29T17:52:10.983Z,58.30
2022-11-29T17:54:37.386Z,61.20
2022-11-29T17:57:04.536Z,64.50
2022-11-29T17:59:30.823Z,55.13
2022-11-29T18:01:57.237Z,53.70
2022-11-29T18:04:23.668Z,63.17
2022-11-29T18:06:50.512Z,61.57
2022-11-29T18:09:18.491Z,57.27
2022-11-29T18:11:48.655Z,67.53
2022-11-29T18:14:22.736Z,62.27
2022-11-29T18:16:50.090Z,52.70
2022-11-29T18:19:19.101Z,59.37
2022-11-29T18:21:45.544Z,58.83
2022-11-29T18:24:12.212Z,57.07
2022-11-29T18:26:39.202Z,48.80
2022-11-29T18:29:06.724Z,55.00
2022-11-29T18:31:35.531Z,51.70
2022-11-29T18:34:06.873Z,50.93
2022-11-29T18:36:36.447Z,50.40
2022-11-29T18:39:05.718Z,54.23
2022-11-29T18:41:32.859Z,57.93
2022-11-29T18:44:02.299Z,59.87
2022-11-29T18:46:33.055Z,52.47
2022-11-29T18:49:00.965Z,52.63
2022-11-29T18:51:29.435Z,56.60
2022-11-29T18:53:56.580Z,62.63
2022-11-29T18:56:24.932Z,61.30
2022-11-29T18:58:58.179Z,59.63
2022-11-29T19:01:27.048Z,56.17
2022-11-29T19:03:55.430Z,53.23
2022-11-29T19:06:24.667Z,54.07
2022-11-29T19:08:52.665Z,53.90
2022-11-29T19:11:22.018Z,60.67
2022-11-29T19:13:53.638Z,57.77
2022-11-29T19:16:20.122Z,56.77
2022-11-29T19:18:50.978Z,49.27
2022-11-29T19:21:18.809Z,55.87
2022-11-29T19:23:51.533Z,52.77
2022-11-29T19:26:18.150Z,55.30
2022-11-29T19:28:45.975Z,61.77
2022-11-29T19:31:14.603Z,62.07
2022-11-29T19:33:44.656Z,63.57
2022-11-29T19:36:17.388Z,53.17
2022-11-29T19:38:48.780Z,52.80
2022-11-29T19:41:20.074Z,49.40
2022-11-29T19:43:47.425Z,56.00
2022-11-29T19:46:19.727Z,70.63
2022-11-29T19:48:46.558Z,58.10
2022-11-29T19:51:16.517Z,63.63
2022-11-29T19:53:43.099Z,65.63
2022-11-29T19:56:14.151Z,57.67
2022-11-29T19:58:40.681Z,61.30
2022-11-29T20:01:19.001Z,68.77
2022-11-29T20:03:45.426Z,63.17
2022-11-29T20:06:13.500Z,67.33
2022-11-29T20:08:41.697Z,61.43
2022-11-29T20:11:19.979Z,64.80
2022-11-29T20:13:53.147Z,66.97
2022-11-29T20:16:19.960Z,61.60
2022-11-29T20:18:51.067Z,68.33
2022-11-29T20:21:38.037Z,61.50
2022-11-29T20:24:06.946Z,56.10
2022-11-29T20:26:36.054Z,55.60
2022-11-29T20:29:03.259Z,54.77
2022-11-29T20:31:31.526Z,54.90
2022-11-29T20:33:58.271Z,66.87
2022-11-29T20:36:36.909Z,53.13
2022-11-29T20:39:36.850Z,52.30
2022-11-29T20:42:37.119Z,49.50
2022-11-29T20:45:06.468Z,52.30
2022-11-29T20:47:53.146Z,53.37
2022-11-29T20:50:23.466Z,47.30
2022-11-29T20:53:11.307Z,55.53
2022-11-29T20:55:46.304Z,50.97
2022-11-29T20:58:14.407Z,49.27
2022-11-29T21:00:40.767Z,50.47
2022-11-29T21:03:07.067Z,46.23
2022-11-29T21:05:33.551Z,60.77
2022-11-29T21:08:00.016Z,49.90
2022-11-29T21:10:26.486Z,50.73
2022-11-29T21:12:53.172Z,49.60
2022-11-29T21:15:19.907Z,57.07
2022-11-29T21:17:46.636Z,48.47
2022-11-29T21:20:26.605Z,47.17
2022-11-29T21:23:01.763Z,49.10
2022-11-29T21:25:43.229Z,49.77
2022-11-29T21:28:14.945Z,47.27
2022-11-29T21:30:42.716Z,49.07
2022-11-29T21:33:09.701Z,48.33
2022-11-29T21:35:39.600Z,43.73
2022-11-29T21:38:11.880Z,51.03
2022-11-29T21:40:38.222Z,50.13
2022-11-29T21:43:04.558Z,50.67
2022-11-29T21:45:30.971Z,68.60
2022-11-29T21:47:59.976Z,52.70
2022-11-29T21:50:26.372Z,59.57
2022-11-29T21:52:52.779Z,60.97
2022-11-29T21:55:19.105Z,47.83
2022-11-29T21:57:45.413Z,59.27
2022-11-29T22:00:12.329Z,56.93
2022-11-29T22:02:38.802Z,57.13
2022-11-29T22:05:07.126Z,54.90
2022-11-29T22:07:33.524Z,50.73
2022-11-29T22:10:09.940Z,55.37
2022-11-29T22:12:38.287Z,56.63
2022-11-29T22:15:05.203Z,56.47
2022-11-29T22:17:31.494Z,55.37
2022-11-29T22:19:57.852Z,66.57
2022-11-29T22:22:27.150Z,62.80
2022-11-29T22:24:54.472Z,52.40
2022-11-29T22:27:20.993Z,62.53
2022-11-29T22:29:47.374Z,63.70
2022-11-29T22:32:13.758Z,57.40
2022-11-29T22:34:40.098Z,61.70
2022-11-29T22:37:06.380Z,58.57
2022-11-29T22:39:32.664Z,53.87
2022-11-29T22:41:59.171Z,60.80
2022-11-29T22:44:25.687Z,53.00
2022-11-29T22:46:52.082Z,57.77
2022-11-29T22:49:18.830Z,59.23
2022-11-29T22:51:45.168Z,57.17
2022-11-29T22:54:15.180Z,53.10
2022-11-29T22:56:43.043Z,48.47
2022-11-29T22:59:09.343Z,54.83
2022-11-29T23:01:38.079Z,54.23
2022-11-29T23:04:07.288Z,47.87
2022-11-29T23:06:37.865Z,55.03
2022-11-29T23:09:11.931Z,58.27
2022-11-29T23:11:38.734Z,52.43
2022-11-29T23:14:05.066Z,62.03
2022-11-29T23:16:32.851Z,69.90
2022-11-29T23:19:00.711Z,65.67
2022-11-29T23:21:39.571Z,62.20
2022-11-29T23:24:06.307Z,72.33
2022-11-29T23:26:39.616Z,73.77
2022-11-29T23:29:11.526Z,72.47
2022-11-29T23:31:38.515Z,78.80
2022-11-29T23:34:05.401Z,68.73
2022-11-29T23:36:32.190Z,71.73
2022-11-29T23:38:58.505Z,72.50
2022-11-29T23:41:26.353Z,76.80
2022-11-29T23:43:52.745Z,71.17
2022-11-29T23:46:21.478Z,83.83
2022-11-29T23:48:48.169Z,82.67
2022-11-29T23:51:15.563Z,87.10
2022-11-29T23:53:42.267Z,78.83
2022-11-29T23:56:12.596Z,78.23
2022-11-29T23:58:39.321Z,77.40
